Time;durP1;ratioP1;P1;durP2;ratioP2;P2;SDS_P1;SDS_P2;PMS_P1;PMS_P2;Temp;Humidity;BMP_temperature;BMP_pressure;BME280_temperature;BME280_humidity;BME280_pressure;Samples;Min_cycle;Max_cycle;Signal;HPM_P1;HPM_P2
2022/01/04 00:02:19;;;;;;;30.40;3.85;;;8.70;99.90;;;;;;4984440;28;20057;-71
2022/01/04 00:04:47;;;;;;;27.08;4.20;;;8.80;99.90;;;;;;4984974;28;20042;-73
2022/01/04 00:07:15;;;;;;;27.80;3.78;;;8.80;99.90;;;;;;4968032;28;20122;-72
2022/01/04 00:09:45;;;;;;;31.05;3.80;;;8.70;99.90;;;;;;4985469;28;20054;-72
2022/01/04 00:14:59;;;;;;;38.58;3.72;;;8.70;99.90;;;;;;4985132;28;20483;-72
2022/01/04 00:17:28;;;;;;;;;;;8.70;99.90;;;;;;4985095;28;20487;-71
2022/01/04 00:19:56;;;;;;;26.40;3.63;;;8.70;99.90;;;;;;4986532;28;19929;-72
2022/01/04 00:22:24;;;;;;;28.63;3.45;;;8.60;99.90;;;;;;4985062;28;20061;-70
2022/01/04 00:24:51;;;;;;;33.88;3.95;;;8.60;99.90;;;;;;4968973;28;20073;-71
2022/01/04 00:27:19;;;;;;;20.27;3.53;;;8.60;99.90;;;;;;4986167;28;20492;-72
2022/01/04 00:29:47;;;;;;;22.08;3.45;;;8.60;99.90;;;;;;4986111;28;20065;-73
2022/01/04 00:32:14;;;;;;;29.98;3.42;;;8.60;99.90;;;;;;4985878;28;20054;-70
2022/01/04 00:34:42;;;;;;;29.85;3.63;;;8.60;99.90;;;;;;4985520;28;20077;-72
2022/01/04 00:37:10;;;;;;;23.52;3.97;;;8.60;99.90;;;;;;4984895;28;20459;-72
2022/01/04 00:39:37;;;;;;;33.67;4.20;;;8.60;99.90;;;;;;4985923;28;20142;-73
2022/01/04 00:42:05;;;;;;;30.85;4.00;;;8.60;99.90;;;;;;4984805;28;20377;-72
2022/01/04 00:44:33;;;;;;;35.92;3.90;;;8.60;99.90;;;;;;4985708;28;20050;-72
2022/01/04 00:47:02;;;;;;;33.22;3.78;;;8.60;99.90;;;;;;4985562;28;20651;-71
2022/01/04 00:49:30;;;;;;;32.60;3.90;;;8.60;99.90;;;;;;4985485;28;20046;-73
2022/01/04 00:52:00;;;;;;;;;;;8.60;99.90;;;;;;4985250;28;20054;-72
2022/01/04 00:54:28;;;;;;;30.35;3.72;;;8.50;99.90;;;;;;4986286;28;20358;-72
2022/01/04 00:56:56;;;;;;;29.10;3.65;;;8.50;99.90;;;;;;4985711;28;20893;-72
2022/01/04 00:59:23;;;;;;;31.45;3.75;;;8.50;99.90;;;;;;4985592;28;20051;-72
2022/01/04 01:01:52;;;;;;;30.35;3.72;;;8.50;99.90;;;;;;4985015;28;20054;-70
2022/01/04 01:04:20;;;;;;;26.90;3.40;;;8.50;99.90;;;;;;4984161;28;20046;-72
2022/01/04 01:06:47;;;;;;;32.97;3.78;;;8.50;99.90;;;;;;4983977;28;20490;-71
2022/01/04 01:09:15;;;;;;;29.70;3.90;;;8.50;99.90;;;;;;4984873;28;20482;-71
2022/01/04 01:11:43;;;;;;;28.80;3.70;;;8.50;99.90;;;;;;4985204;28;20069;-71
2022/01/04 01:14:10;;;;;;;26.75;3.55;;;8.50;99.90;;;;;;4985547;28;20050;-73
2022/01/04 01:16:38;;;;;;;40.95;3.92;;;8.50;99.90;;;;;;4985470;28;20050;-72
2022/01/04 01:19:06;;;;;;;33.55;3.47;;;8.50;99.90;;;;;;4984316;28;20055;-70
2022/01/04 01:21:33;;;;;;;31.70;4.00;;;8.50;99.90;;;;;;4984045;28;20383;-73
2022/01/04 01:24:01;;;;;;;25.02;3.42;;;8.50;99.90;;;;;;4987039;28;20057;-71
2022/01/04 01:26:29;;;;;;;29.10;3.55;;;8.40;99.90;;;;;;4987849;28;20054;-71
2022/01/04 01:28:57;;;;;;;32.38;3.97;;;8.40;99.90;;;;;;4987759;28;20050;-73
2022/01/04 01:31:24;;;;;;;25.25;3.72;;;8.40;99.90;;;;;;4989569;28;20046;-72
2022/01/04 01:33:52;;;;;;;33.15;4.03;;;8.40;99.90;;;;;;4988023;28;20053;-71
2022/01/04 01:36:20;;;;;;;28.02;4.03;;;8.40;99.90;;;;;;4989322;28;20050;-74
2022/01/04 01:38:47;;;;;;;36.22;3.80;;;8.40;99.90;;;;;;4989285;28;20059;-73
2022/01/04 01:41:15;;;;;;;31.65;3.65;;;8.40;99.90;;;;;;4989259;28;20113;-72
2022/01/04 01:43:44;;;;;;;31.30;4.35;;;8.40;99.90;;;;;;4988803;28;20053;-72
2022/01/04 01:46:12;;;;;;;33.35;4.50;;;8.40;99.90;;;;;;5003885;28;20042;-71
2022/01/04 01:48:40;;;;;;;37.78;4.07;;;8.40;99.90;;;;;;4988943;28;20050;-71
2022/01/04 01:51:08;;;;;;;27.52;3.72;;;8.40;99.90;;;;;;4988936;28;20053;-71
2022/01/04 01:53:36;;;;;;;24.42;3.55;;;8.40;99.90;;;;;;4988565;28;20491;-70
2022/01/04 01:56:04;;;;;;;27.35;4.30;;;8.40;99.90;;;;;;4988582;28;20046;-73
2022/01/04 01:58:32;;;;;;;34.75;4.00;;;8.40;99.90;;;;;;4988301;28;20057;-71
2022/01/04 02:00:59;;;;;;;27.98;3.75;;;8.40;99.90;;;;;;4988749;28;20487;-71
2022/01/04 02:03:28;;;;;;;35.28;4.38;;;8.40;99.90;;;;;;4986723;28;20062;-72
2022/01/04 02:05:56;;;;;;;37.17;3.97;;;8.40;99.90;;;;;;4987339;28;20070;-70
2022/01/04 02:08:24;;;;;;;;;;;8.40;99.90;;;;;;4989347;28;20059;-71
2022/01/04 02:10:52;;;;;;;36.35;4.10;;;8.40;99.90;;;;;;4955119;28;19926;-70
2022/01/04 02:13:20;;;;;;;37.53;4.22;;;8.40;99.90;;;;;;4970929;28;20073;-71
2022/01/04 02:15:47;;;;;;;33.70;3.70;;;8.40;99.90;;;;;;4988400;28;20400;-73
2022/01/04 02:18:15;;;;;;;26.15;3.70;;;8.40;99.90;;;;;;4984642;28;20487;-71
2022/01/04 02:20:43;;;;;;;33.70;4.40;;;8.30;99.90;;;;;;4986676;28;20046;-72
2022/01/04 02:23:11;;;;;;;26.70;3.83;;;8.30;99.90;;;;;;4987419;28;20065;-70
2022/01/04 02:25:38;;;;;;;29.80;3.75;;;8.30;99.90;;;;;;4988376;28;20407;-71
2022/01/04 02:28:06;;;;;;;29.38;3.70;;;8.30;99.90;;;;;;4988320;28;20050;-70
2022/01/04 02:30:34;;;;;;;34.95;4.35;;;8.30;99.90;;;;;;4988745;28;20444;-71
2022/01/04 02:33:02;;;;;;;33.60;4.10;;;8.30;99.90;;;;;;4982590;28;20046;-70
2022/01/04 02:35:31;;;;;;;34.20;4.57;;;8.20;99.90;;;;;;4967360;28;20123;-71
2022/01/04 02:38:00;;;;;;;27.90;4.00;;;8.20;99.90;;;;;;4951742;28;20135;-73
2022/01/04 02:40:28;;;;;;;31.85;3.90;;;8.20;99.90;;;;;;4967665;28;20058;-71
2022/01/04 02:42:55;;;;;;;31.85;3.88;;;8.20;99.90;;;;;;4957734;28;20068;-71
2022/01/04 02:45:24;;;;;;;28.23;4.07;;;8.20;99.90;;;;;;4985829;28;20738;-70
2022/01/04 02:47:52;;;;;;;32.22;3.85;;;8.20;99.90;;;;;;4988187;28;20410;-72
2022/01/04 02:50:20;;;;;;;34.05;4.20;;;8.10;99.90;;;;;;4987442;28;20697;-71
2022/01/04 02:52:48;;;;;;;31.88;4.40;;;8.10;99.90;;;;;;4970726;28;20398;-70
2022/01/04 02:55:16;;;;;;;;;;;8.10;99.90;;;;;;4987397;28;20050;-70
2022/01/04 02:57:44;;;;;;;;;;;8.10;99.90;;;;;;4988296;28;19925;-70
2022/01/04 03:00:13;;;;;;;;;;;8.10;99.90;;;;;;4988205;28;20278;-72
2022/01/04 03:02:42;;;;;;;33.70;3.72;;;8.10;99.90;;;;;;4985871;28;19925;-73
2022/01/04 03:05:11;;;;;;;29.85;3.55;;;8.10;99.90;;;;;;4987757;28;20054;-70
2022/01/04 03:07:39;;;;;;;41.70;3.95;;;8.10;99.90;;;;;;4985795;28;20055;-72
2022/01/04 03:10:07;;;;;;;29.35;4.00;;;8.10;99.90;;;;;;4986714;28;20050;-73
2022/01/04 03:12:39;;;;;;;29.17;3.60;;;8.10;99.90;;;;;;4986846;28;20057;-72
2022/01/04 03:15:07;;;;;;;26.23;3.25;;;8.10;99.90;;;;;;4970636;28;20051;-72
2022/01/04 03:17:34;;;;;;;27.17;3.20;;;8.10;99.90;;;;;;4987962;28;20141;-74
2022/01/04 03:20:04;;;;;;;25.38;3.40;;;8.10;99.90;;;;;;4970605;28;20050;-73
2022/01/04 03:22:31;;;;;;;32.83;3.75;;;8.10;99.90;;;;;;4986348;28;20054;-71
2022/01/04 03:24:59;;;;;;;31.08;3.60;;;8.10;99.90;;;;;;4988251;28;20050;-71
2022/01/04 03:27:28;;;;;;;36.00;4.35;;;8.10;99.90;;;;;;4986688;28;20062;-71
2022/01/04 03:29:56;;;;;;;19.08;3.10;;;8.10;99.90;;;;;;4988175;28;20069;-73
2022/01/04 03:32:24;;;;;;;34.47;3.75;;;8.10;99.90;;;;;;4970485;28;20138;-72
2022/01/04 03:34:53;;;;;;;26.30;3.92;;;8.10;99.90;;;;;;4987939;28;20046;-72
2022/01/04 03:37:20;;;;;;;29.00;3.55;;;8.10;99.90;;;;;;4986673;28;20053;-72
2022/01/04 03:39:48;;;;;;;37.03;3.80;;;8.10;99.90;;;;;;5002275;28;20065;-72
2022/01/04 03:42:15;;;;;;;35.95;3.58;;;8.10;99.90;;;;;;4987765;28;20077;-72
2022/01/04 03:44:43;;;;;;;32.67;3.40;;;8.10;99.90;;;;;;5002758;28;20058;-71
2022/01/04 03:47:11;;;;;;;33.35;3.60;;;8.10;99.90;;;;;;5001735;28;20058;-71
2022/01/04 03:49:39;;;;;;;32.22;3.63;;;8.10;99.90;;;;;;4987468;28;20065;-71
2022/01/04 03:52:07;;;;;;;29.60;4.22;;;8.10;99.90;;;;;;4987555;28;20050;-72
2022/01/04 03:54:35;;;;;;;30.25;3.88;;;8.10;99.90;;;;;;4987667;28;20053;-72
2022/01/04 03:57:03;;;;;;;37.53;3.85;;;8.10;99.90;;;;;;4987476;28;20057;-70
2022/01/04 03:59:31;;;;;;;31.83;3.58;;;8.10;99.90;;;;;;4987150;28;20054;-73
2022/01/04 04:01:59;;;;;;;38.33;4.07;;;8.10;99.90;;;;;;4985471;28;20729;-72
2022/01/04 04:04:27;;;;;;;28.80;3.45;;;8.10;99.90;;;;;;4982747;28;20061;-72
2022/01/04 04:06:55;;;;;;;28.58;3.97;;;8.10;99.90;;;;;;4982648;28;20050;-72
2022/01/04 04:09:23;;;;;;;36.92;3.78;;;8.20;99.90;;;;;;4985896;28;20050;-73
2022/01/04 04:11:50;;;;;;;30.52;3.65;;;8.20;99.90;;;;;;4987175;28;20054;-71
2022/01/04 04:14:18;;;;;;;36.50;3.70;;;8.20;99.90;;;;;;4986409;28;20051;-71
2022/01/04 04:17:06;;;;;;;;;;;8.30;99.90;;;;;;4985612;28;20450;-71
2022/01/04 04:19:34;;;;;;;33.28;3.45;;;8.30;99.90;;;;;;4969597;28;19925;-73
2022/01/04 04:22:03;;;;;;;26.77;4.00;;;8.30;99.90;;;;;;4985868;28;20057;-72
2022/01/04 04:24:31;;;;;;;29.85;3.58;;;8.30;99.90;;;;;;5018382;28;20410;-72
2022/01/04 04:26:58;;;;;;;29.48;3.70;;;8.30;99.90;;;;;;4986824;28;20066;-72
2022/01/04 04:29:26;;;;;;;30.90;3.42;;;8.30;99.90;;;;;;4986318;28;20046;-73
2022/01/04 04:31:53;;;;;;;20.60;2.97;;;8.30;99.90;;;;;;4985223;28;20058;-72
2022/01/04 04:34:21;;;;;;;24.77;3.10;;;8.30;99.90;;;;;;4986643;28;20061;-73
2022/01/04 04:36:49;;;;;;;23.58;3.28;;;8.30;99.90;;;;;;4986360;28;20054;-73
2022/01/04 04:39:18;;;;;;;30.98;3.22;;;8.30;99.90;;;;;;4986714;28;20054;-71
2022/01/04 04:41:45;;;;;;;20.38;2.58;;;8.40;99.90;;;;;;4986743;28;20062;-72
2022/01/04 04:44:13;;;;;;;27.90;3.33;;;8.40;99.90;;;;;;4985996;28;20042;-71
2022/01/04 04:46:41;;;;;;;22.50;3.20;;;8.50;99.90;;;;;;4986276;28;20042;-72
2022/01/04 04:49:09;;;;;;;23.13;3.00;;;8.40;99.90;;;;;;4986416;28;20525;-73
2022/01/04 04:51:36;;;;;;;22.33;2.97;;;8.40;99.90;;;;;;4986262;28;20042;-71
2022/01/04 04:54:05;;;;;;;22.27;3.20;;;8.40;99.90;;;;;;4986646;28;20065;-72
2022/01/04 04:56:34;;;;;;;;;;;8.40;99.90;;;;;;4986875;28;20468;-71
2022/01/04 04:59:02;;;;;;;24.05;2.90;;;8.40;99.90;;;;;;4985474;28;19925;-72
2022/01/04 05:01:29;;;;;;;22.88;3.50;;;8.40;99.90;;;;;;4985066;28;20058;-72
2022/01/04 05:03:57;;;;;;;22.90;3.10;;;8.50;99.90;;;;;;4985214;28;20058;-71
2022/01/04 05:06:26;;;;;;;28.77;3.30;;;8.40;99.90;;;;;;4986171;28;20051;-72
2022/01/04 05:08:53;;;;;;;;;;;8.40;99.90;;;;;;4987053;28;20050;-73
2022/01/04 05:11:21;;;;;;;18.48;3.13;;;8.50;99.90;;;;;;4986353;28;19930;-72
2022/01/04 05:13:48;;;;;;;17.95;2.67;;;8.50;99.90;;;;;;4986368;28;20087;-72
2022/01/04 05:16:16;;;;;;;26.48;3.05;;;8.50;99.90;;;;;;4986681;28;20053;-72
2022/01/04 05:18:44;;;;;;;27.63;3.10;;;8.50;99.90;;;;;;4986619;28;20054;-72
2022/01/04 05:21:12;;;;;;;27.58;3.50;;;8.50;99.90;;;;;;4952386;28;20054;-71
2022/01/04 05:23:39;;;;;;;21.02;3.15;;;8.50;99.90;;;;;;4986029;28;20122;-73
2022/01/04 05:26:07;;;;;;;34.83;3.72;;;8.50;99.90;;;;;;4985763;28;20556;-73
2022/01/04 05:28:35;;;;;;;28.30;3.70;;;8.50;99.90;;;;;;4986322;28;20061;-72
2022/01/04 05:31:03;;;;;;;27.20;3.35;;;8.50;99.90;;;;;;4985784;28;20050;-73
2022/01/04 05:33:30;;;;;;;31.88;3.72;;;8.40;99.90;;;;;;4985829;28;20058;-73
2022/01/04 05:35:59;;;;;;;30.38;3.75;;;8.40;99.90;;;;;;4985899;28;20042;-71
2022/01/04 05:38:27;;;;;;;35.17;3.85;;;8.40;99.90;;;;;;4984875;28;20057;-73
2022/01/04 05:40:54;;;;;;;26.17;3.25;;;8.30;99.90;;;;;;4984738;28;20042;-71
2022/01/04 05:43:22;;;;;;;26.95;3.65;;;8.40;99.90;;;;;;4985884;28;20061;-73
2022/01/04 05:45:50;;;;;;;23.75;3.65;;;8.40;99.90;;;;;;4984504;28;20070;-72
2022/01/04 05:48:20;;;;;;;24.95;3.20;;;8.30;99.90;;;;;;4985657;28;20669;-72
2022/01/04 05:50:48;;;;;;;30.65;3.28;;;8.30;99.90;;;;;;4985500;28;20049;-73
2022/01/04 05:53:17;;;;;;;23.38;3.28;;;8.30;99.90;;;;;;4985237;28;20046;-72
2022/01/04 05:55:45;;;;;;;36.97;3.45;;;8.30;99.90;;;;;;4984134;28;20724;-72
2022/01/04 05:58:12;;;;;;;27.58;3.70;;;8.30;99.90;;;;;;4985391;28;20053;-70
2022/01/04 06:00:40;;;;;;;28.25;3.30;;;8.30;99.90;;;;;;4985539;28;20403;-71
2022/01/04 06:03:08;;;;;;;29.08;3.67;;;8.20;99.90;;;;;;4985482;28;20546;-73
2022/01/04 06:05:36;;;;;;;34.55;3.90;;;8.30;99.90;;;;;;4983527;28;20054;-73
2022/01/04 06:08:04;;;;;;;;;;;8.30;99.90;;;;;;4985453;28;20050;-72
2022/01/04 06:10:38;;;;;;;23.92;3.53;;;8.30;99.90;;;;;;4987265;28;19925;-73
2022/01/04 06:15:38;;;;;;;27.35;3.58;;;8.40;99.90;;;;;;4987848;28;20042;-72
2022/01/04 06:18:06;;;;;;;27.55;3.60;;;8.30;99.90;;;;;;4988071;28;20043;-74
2022/01/04 06:20:35;;;;;;;23.92;3.30;;;8.30;99.90;;;;;;4988693;28;20499;-72
2022/01/04 06:23:03;;;;;;;28.73;3.38;;;8.30;99.90;;;;;;4987381;28;20038;-73
2022/01/04 06:25:31;;;;;;;26.20;3.55;;;8.30;99.90;;;;;;4988377;28;20054;-72
2022/01/04 06:27:58;;;;;;;31.40;3.63;;;8.40;99.90;;;;;;4988574;28;20085;-73
2022/01/04 06:30:26;;;;;;;21.10;3.17;;;8.40;99.90;;;;;;4988552;28;20089;-72
2022/01/04 06:32:54;;;;;;;24.58;3.15;;;8.40;99.90;;;;;;4988304;28;20470;-73
2022/01/04 06:35:22;;;;;;;22.73;3.40;;;8.40;99.90;;;;;;4988432;28;20043;-73
2022/01/04 06:37:49;;;;;;;27.70;3.33;;;8.40;99.90;;;;;;4988504;28;20054;-71
2022/01/04 06:40:17;;;;;;;31.90;3.70;;;8.40;99.90;;;;;;4988744;28;20050;-72
2022/01/04 06:42:45;;;;;;;32.28;3.50;;;8.40;99.90;;;;;;4987028;28;20050;-72
2022/01/04 06:45:14;;;;;;;29.30;3.92;;;8.40;99.90;;;;;;4987771;28;20042;-71
2022/01/04 06:47:42;;;;;;;37.22;4.07;;;8.40;99.90;;;;;;4987435;28;20047;-71
2022/01/04 06:50:14;;;;;;;36.13;5.28;;;8.40;99.90;;;;;;4987025;28;20503;-72
2022/01/04 06:52:42;;;;;;;42.90;3.67;;;8.40;99.90;;;;;;4986476;28;20054;-72
2022/01/04 06:55:10;;;;;;;24.83;3.30;;;8.40;99.90;;;;;;4986851;28;20498;-73
2022/01/04 06:57:38;;;;;;;31.85;3.90;;;8.40;99.90;;;;;;4988356;28;20069;-71
2022/01/04 07:00:08;;;;;;;33.20;3.80;;;8.40;99.90;;;;;;4988223;28;20061;-70
2022/01/04 07:02:35;;;;;;;32.38;4.15;;;8.40;99.90;;;;;;4985909;28;20085;-71
2022/01/04 07:05:04;;;;;;;28.98;3.33;;;8.40;99.90;;;;;;4970317;28;20046;-70
2022/01/04 07:07:31;;;;;;;36.80;4.20;;;8.40;99.90;;;;;;4970271;28;20058;-71
2022/01/04 07:09:59;;;;;;;34.30;3.63;;;8.40;99.90;;;;;;4987985;28;20058;-70
2022/01/04 07:12:27;;;;;;;24.48;3.25;;;8.40;99.90;;;;;;4986581;28;20427;-71
2022/01/04 07:14:54;;;;;;;23.00;4.03;;;8.40;99.90;;;;;;4988215;28;20050;-71
2022/01/04 07:17:22;;;;;;;30.23;3.95;;;8.40;99.90;;;;;;4986548;28;20050;-73
2022/01/04 07:19:50;;;;;;;33.63;4.20;;;8.40;99.90;;;;;;4985332;28;20061;-72
2022/01/04 07:22:18;;;;;;;38.20;3.75;;;8.30;99.90;;;;;;5002779;28;20110;-72
2022/01/04 07:24:45;;;;;;;34.75;3.67;;;8.30;99.90;;;;;;5005597;28;20121;-70
2022/01/04 07:27:13;;;;;;;32.92;4.00;;;8.30;99.90;;;;;;5006011;28;20061;-71
2022/01/04 07:29:41;;;;;;;32.85;3.92;;;8.30;99.90;;;;;;5006130;28;20054;-70
2022/01/04 07:32:10;;;;;;;34.55;4.13;;;8.30;99.90;;;;;;5006978;28;20058;-72
2022/01/04 07:34:38;;;;;;;25.63;3.38;;;8.30;99.90;;;;;;5007231;28;20045;-72
2022/01/04 07:37:06;;;;;;;27.20;3.75;;;8.30;99.90;;;;;;4991202;28;20494;-71
2022/01/04 07:39:34;;;;;;;30.10;3.42;;;8.20;99.90;;;;;;4985692;28;20054;-71
2022/01/04 07:42:02;;;;;;;;;;;8.20;99.90;;;;;;4987747;28;20035;-70
2022/01/04 07:44:33;;;;;;;27.23;3.30;;;8.20;99.90;;;;;;4986055;28;19932;-70
2022/01/04 07:47:01;;;;;;;28.23;3.53;;;8.10;99.90;;;;;;4953855;28;20534;-74
2022/01/04 07:49:29;;;;;;;32.53;3.95;;;8.00;99.90;;;;;;4988015;28;20046;-73
2022/01/04 07:51:58;;;;;;;30.48;3.35;;;8.00;99.90;;;;;;4989972;28;20041;-74
2022/01/04 07:54:26;;;;;;;27.88;3.88;;;7.90;99.90;;;;;;4988537;28;20061;-71
2022/01/04 07:56:55;;;;;;;37.97;4.68;;;7.90;99.90;;;;;;4966887;28;20424;-75
2022/01/04 07:59:23;;;;;;;32.10;3.90;;;7.80;99.90;;;;;;4983647;28;20043;-72
2022/01/04 08:01:50;;;;;;;;;;;7.80;99.90;;;;;;4997508;28;20062;-71
2022/01/04 08:04:18;;;;;;;36.45;3.65;;;7.70;99.90;;;;;;4992471;28;19932;-73
2022/01/04 08:06:46;;;;;;;39.03;4.05;;;7.70;99.90;;;;;;4984970;28;20463;-73
2022/01/04 08:09:14;;;;;;;40.17;4.03;;;7.60;99.90;;;;;;4985725;28;20055;-73
2022/01/04 08:11:42;;;;;;;37.97;4.03;;;7.60;99.90;;;;;;4984090;28;20050;-73
2022/01/04 08:14:10;;;;;;;42.72;3.95;;;7.60;99.90;;;;;;4968482;28;20065;-71
2022/01/04 08:16:38;;;;;;;43.53;4.60;;;7.50;99.90;;;;;;4985551;28;20034;-73
2022/01/04 08:19:05;;;;;;;30.88;4.07;;;7.50;99.90;;;;;;4985162;28;20061;-74
2022/01/04 08:21:33;;;;;;;38.13;4.00;;;7.50;99.90;;;;;;4985318;28;20042;-72
2022/01/04 08:24:02;;;;;;;32.80;3.97;;;7.50;99.90;;;;;;4985605;28;20491;-75
2022/01/04 08:26:29;;;;;;;29.27;4.40;;;7.50;99.90;;;;;;4986921;28;20049;-71
2022/01/04 08:28:57;;;;;;;37.50;4.50;;;7.50;99.90;;;;;;4969622;28;20054;-72
2022/01/04 08:31:26;;;;;;;36.08;4.35;;;7.50;99.90;;;;;;4985883;28;20038;-74
2022/01/04 08:33:54;;;;;;;36.08;4.90;;;7.50;99.90;;;;;;4968904;28;20061;-72
2022/01/04 08:36:26;;;;;;;31.50;4.03;;;7.50;99.90;;;;;;4987020;28;20403;-74
2022/01/04 08:38:55;;;;;;;27.85;4.13;;;7.40;99.90;;;;;;4985772;28;20050;-73
2022/01/04 08:41:24;;;;;;;28.63;3.85;;;7.40;99.90;;;;;;4986802;28;20062;-74
2022/01/04 08:43:51;;;;;;;35.63;4.20;;;7.40;99.90;;;;;;4977859;28;20061;-73
2022/01/04 08:46:19;;;;;;;33.05;4.43;;;7.40;99.90;;;;;;5000427;28;20053;-73
2022/01/04 08:48:47;;;;;;;42.75;4.30;;;7.40;99.90;;;;;;5017482;28;20046;-73
2022/01/04 08:51:16;;;;;;;27.77;3.85;;;7.40;99.90;;;;;;4997202;28;20414;-74
2022/01/04 08:53:49;;;;;;;35.67;4.47;;;7.40;99.90;;;;;;4999856;28;20415;-72
2022/01/04 08:56:18;;;;;;;35.38;3.97;;;7.40;99.90;;;;;;5001139;28;20058;-72
2022/01/04 08:58:46;;;;;;;26.00;3.97;;;7.40;99.90;;;;;;5004503;28;20069;-73
2022/01/04 09:01:13;;;;;;;22.83;3.53;;;7.40;99.90;;;;;;4993618;28;20046;-73
2022/01/04 09:03:41;;;;;;;23.77;3.58;;;7.50;99.90;;;;;;5000025;28;20057;-73
2022/01/04 09:06:11;;;;;;;36.40;4.20;;;7.50;99.90;;;;;;4994455;28;20086;-76
2022/01/04 09:08:38;;;;;;;30.70;4.25;;;7.50;99.90;;;;;;4999162;28;20046;-78
2022/01/04 09:11:06;;;;;;;29.20;4.60;;;7.60;99.90;;;;;;4982231;28;20076;-77
2022/01/04 09:13:38;;;;;;;33.30;4.75;;;7.60;99.90;;;;;;5003610;28;20056;-79
2022/01/04 09:18:49;;;;;;;37.42;4.28;;;7.70;99.90;;;;;;5004440;28;20057;-77
2022/01/04 09:21:28;;;;;;;41.22;4.78;;;7.80;99.90;;;;;;4992226;28;20400;-80
2022/01/04 09:23:59;;;;;;;30.33;4.75;;;7.90;99.90;;;;;;4984421;28;20057;-74
2022/01/04 09:26:28;;;;;;;28.90;4.22;;;7.90;99.90;;;;;;4986810;28;20112;-78
2022/01/04 09:28:57;;;;;;;34.22;4.13;;;8.00;99.90;;;;;;5001549;28;20045;-78
2022/01/04 09:31:27;;;;;;;30.77;4.70;;;8.10;99.90;;;;;;5001035;28;20049;-78
2022/01/04 09:33:57;;;;;;;29.90;3.85;;;8.10;99.90;;;;;;4984240;28;20051;-76
2022/01/04 09:36:34;;;;;;;31.27;4.28;;;8.20;99.90;;;;;;4985517;28;20061;-74
2022/01/04 09:39:07;;;;;;;36.95;4.38;;;8.30;99.90;;;;;;4985820;28;20050;-76
2022/01/04 09:41:35;;;;;;;32.72;3.78;;;8.40;99.90;;;;;;5004024;28;20053;-76
2022/01/04 09:44:04;;;;;;;39.83;4.70;;;8.40;99.90;;;;;;5003993;28;20046;-77
2022/01/04 09:46:33;;;;;;;27.60;3.70;;;8.50;99.90;;;;;;5000764;28;20046;-77
2022/01/04 09:49:02;;;;;;;38.25;4.22;;;8.50;99.90;;;;;;4987477;28;20058;-77
2022/01/04 09:51:30;;;;;;;;;;;8.60;99.90;;;;;;4989403;28;20104;-74
2022/01/04 09:53:58;;;;;;;35.25;4.15;;;8.60;99.90;;;;;;5020462;28;20398;-80
2022/01/04 09:56:25;;;;;;;34.15;5.00;;;8.70;99.90;;;;;;4988975;28;20054;-77
2022/01/04 09:58:54;;;;;;;;;;;8.90;99.90;;;;;;4988391;28;20046;-78
2022/01/04 10:01:25;;;;;;;39.22;5.03;;;9.00;99.90;;;;;;5003980;28;19936;-74
2022/01/04 10:04:13;;;;;;;27.33;4.13;;;9.20;99.90;;;;;;4988942;28;20069;-76
2022/01/04 10:07:03;;;;;;;30.15;3.90;;;9.30;99.90;;;;;;4988486;28;20050;-77
2022/01/04 10:09:48;;;;;;;30.42;4.15;;;9.40;99.90;;;;;;4988157;28;20050;-75
2022/01/04 10:12:18;;;;;;;36.83;4.70;;;9.30;99.90;;;;;;4971275;28;20054;-79
2022/01/04 10:14:49;;;;;;;5.82;1.88;;;9.20;99.90;;;;;;4987975;28;20042;-77
2022/01/04 10:17:23;;;;;;;2.78;1.30;;;9.00;99.90;;;;;;4988741;28;20054;-79
2022/01/04 10:19:53;;;;;;;1.48;1.10;;;8.60;99.90;;;;;;4971347;28;20406;-78
2022/01/04 10:22:27;;;;;;;2.75;1.58;;;8.30;99.90;;;;;;4970238;28;20038;-76
2022/01/04 10:25:00;;;;;;;2.33;1.20;;;8.00;99.90;;;;;;4978992;28;20522;-80
2022/01/04 10:27:33;;;;;;;1.80;0.98;;;7.70;99.90;;;;;;4988193;28;20061;-81
2022/01/04 10:30:20;;;;;;;1.38;0.70;;;7.40;99.90;;;;;;4988696;28;20053;-77
2022/01/04 10:32:50;;;;;;;2.10;0.90;;;7.30;99.90;;;;;;4988919;28;20819;-76
2022/01/04 10:35:29;;;;;;;2.10;0.90;;;7.20;99.90;;;;;;4987504;28;20537;-74
2022/01/04 10:38:02;;;;;;;4.40;0.80;;;7.00;99.90;;;;;;4988514;28;20534;-80
2022/01/04 10:40:31;;;;;;;2.92;0.90;;;6.80;99.90;;;;;;4970884;28;20073;-78
2022/01/04 10:43:11;;;;;;;3.70;1.00;;;6.70;99.90;;;;;;4987414;28;20069;-82
2022/01/04 10:45:42;;;;;;;2.47;1.00;;;6.60;99.90;;;;;;4986801;28;20058;-79
2022/01/04 10:48:15;;;;;;;3.33;0.82;;;6.50;99.90;;;;;;4971907;28;20049;-78
2022/01/04 10:50:45;;;;;;;4.55;1.05;;;6.50;99.90;;;;;;4988443;28;20615;-77
2022/01/04 10:53:22;;;;;;;2.17;0.70;;;6.40;99.90;;;;;;4989533;28;20049;-79
2022/01/04 10:55:54;;;;;;;1.00;0.52;;;6.40;99.90;;;;;;5005411;28;20050;-79
2022/01/04 10:58:34;;;;;;;4.55;0.90;;;6.40;99.90;;;;;;5000053;28;20053;-79
2022/01/04 11:01:14;;;;;;;4.43;0.80;;;6.40;99.90;;;;;;4987198;28;20050;-82
2022/01/04 11:03:48;;;;;;;1.20;0.60;;;6.40;99.90;;;;;;4971486;28;20061;-84
2022/01/04 11:06:38;;;;;;;1.08;0.70;;;6.40;99.90;;;;;;4994839;28;20038;-80
2022/01/04 11:09:08;;;;;;;1.73;0.57;;;6.40;99.90;;;;;;5007413;28;20121;-80
2022/01/04 11:11:36;;;;;;;1.52;0.70;;;6.40;99.90;;;;;;5006641;28;20073;-79
2022/01/04 11:14:06;;;;;;;3.03;0.60;;;6.40;99.90;;;;;;5006503;28;20049;-82
2022/01/04 11:16:33;;;;;;;2.28;0.90;;;6.30;99.90;;;;;;5007818;28;20456;-81
2022/01/04 11:19:03;;;;;;;1.77;0.50;;;6.20;99.90;;;;;;5006228;28;20041;-77
2022/01/04 11:21:41;;;;;;;1.30;0.60;;;6.20;99.90;;;;;;4996826;28;20049;-75
2022/01/04 11:24:12;;;;;;;1.10;0.60;;;6.00;99.90;;;;;;4984383;28;20050;-75
2022/01/04 11:26:46;;;;;;;4.45;0.90;;;6.00;99.90;;;;;;4984159;28;20058;-76
2022/01/04 11:29:16;;;;;;;4.15;0.60;;;6.00;99.90;;;;;;4985879;28;20061;-75
2022/01/04 11:32:16;;;;;;;5.45;0.38;;;5.90;99.90;;;;;;4969657;28;20073;-75
2022/01/04 11:35:16;;;;;;;3.13;0.50;;;5.80;99.90;;;;;;4999186;28;20050;-74
2022/01/04 11:37:55;;;;;;;1.80;0.47;;;5.70;99.90;;;;;;5003436;28;20494;-76
2022/01/04 11:40:39;;;;;;;1.80;0.80;;;5.60;99.90;;;;;;5004111;28;20050;-75
2022/01/04 11:43:26;;;;;;;1.58;0.80;;;5.60;99.90;;;;;;5004612;28;20843;-77
2022/01/04 11:45:53;;;;;;;2.45;0.70;;;5.60;99.90;;;;;;5006005;28;20058;-75
2022/01/04 11:48:33;;;;;;;1.63;0.70;;;5.60;99.90;;;;;;5016974;28;20045;-76
2022/01/04 11:51:09;;;;;;;1.58;0.80;;;5.60;99.90;;;;;;4986264;28;20046;-74
2022/01/04 11:53:37;;;;;;;1.05;0.40;;;5.60;99.90;;;;;;5002248;28;20041;-75
2022/01/04 11:56:08;;;;;;;2.38;0.40;;;5.60;99.90;;;;;;5004430;28;20045;-77
2022/01/04 11:58:50;;;;;;;1.30;0.60;;;5.60;99.90;;;;;;4998188;28;20084;-75
2022/01/04 12:01:27;;;;;;;1.92;0.70;;;5.50;99.90;;;;;;5006652;28;20402;-77
2022/01/04 12:03:56;;;;;;;2.13;1.10;;;5.40;99.90;;;;;;5003497;28;20493;-78
2022/01/04 12:06:37;;;;;;;4.15;1.30;;;5.40;99.90;;;;;;4986033;28;20065;-74
2022/01/04 12:09:27;;;;;;;3.13;1.83;;;5.30;99.90;;;;;;4969268;28;20054;-74
2022/01/04 12:11:55;;;;;;;2.42;1.50;;;5.30;99.90;;;;;;5003249;28;20053;-75
2022/01/04 12:14:27;;;;;;;3.60;1.80;;;5.30;99.90;;;;;;5006262;28;20538;-74
2022/01/04 12:17:07;;;;;;;4.80;1.83;;;5.20;99.90;;;;;;5004895;28;20046;-75
2022/01/04 12:19:49;;;;;;;3.50;1.40;;;5.20;99.90;;;;;;5005385;28;20507;-79
2022/01/04 12:22:39;;;;;;;2.70;1.20;;;5.10;99.90;;;;;;4968791;28;20050;-75
2022/01/04 12:25:08;;;;;;;4.05;1.50;;;4.90;99.90;;;;;;4968920;28;20065;-74
2022/01/04 12:27:38;;;;;;;6.03;1.90;;;4.80;99.90;;;;;;4986862;28;20070;-79
2022/01/04 12:30:22;;;;;;;8.45;2.47;;;4.80;99.90;;;;;;4986587;28;20483;-76
2022/01/04 12:32:50;;;;;;;9.57;2.47;;;4.70;99.90;;;;;;4986991;28;20046;-76
2022/01/04 12:35:18;;;;;;;4.05;1.73;;;4.70;99.90;;;;;;4985231;28;20054;-77
2022/01/04 12:37:46;;;;;;;8.10;1.85;;;4.60;99.90;;;;;;4994624;28;20056;-77
2022/01/04 12:40:14;;;;;;;4.97;1.88;;;4.60;99.90;;;;;;4988613;28;20050;-78
2022/01/04 12:42:42;;;;;;;5.60;2.17;;;4.60;99.90;;;;;;4977325;28;20050;-77
2022/01/04 12:45:13;;;;;;;8.38;2.40;;;4.60;99.90;;;;;;4984431;28;20050;-76
2022/01/04 12:47:48;;;;;;;5.88;2.38;;;4.60;99.90;;;;;;4989288;28;20415;-74
2022/01/04 12:50:16;;;;;;;5.97;2.60;;;4.60;99.90;;;;;;4984805;28;20038;-76
2022/01/04 12:52:49;;;;;;;8.50;2.40;;;4.70;99.90;;;;;;4965202;28;20067;-75
2022/01/04 12:55:17;;;;;;;6.57;2.70;;;4.70;99.90;;;;;;4984095;28;20051;-79
2022/01/04 12:57:51;;;;;;;5.40;2.80;;;4.70;99.90;;;;;;4987355;28;20064;-74
2022/01/04 13:00:19;;;;;;;6.03;3.08;;;4.60;99.90;;;;;;4983994;28;20499;-74
2022/01/04 13:02:47;;;;;;;7.18;2.80;;;4.70;99.90;;;;;;4970541;28;20069;-79
2022/01/04 13:05:18;;;;;;;6.65;3.00;;;4.70;99.90;;;;;;4984127;28;20069;-77
2022/01/04 13:07:45;;;;;;;6.63;2.90;;;4.70;99.90;;;;;;4987310;28;20061;-77
2022/01/04 13:10:16;;;;;;;8.63;2.30;;;4.60;99.90;;;;;;4985893;28;20074;-78
2022/01/04 13:12:47;;;;;;;7.03;2.90;;;4.80;99.90;;;;;;4972033;28;20065;-77
2022/01/04 13:15:18;;;;;;;9.43;3.03;;;4.80;99.90;;;;;;4986833;28;20451;-77